createdAt,value
2023-04-28T00:00:30.558Z,4.42
2023-04-28T00:02:58.348Z,4.43
2023-04-28T00:05:26.798Z,4.49
2023-04-28T00:07:55.955Z,4.54
2023-04-28T00:10:23.788Z,4.57
2023-04-28T00:12:51.469Z,4.57
2023-04-28T00:15:19.197Z,4.58
2023-04-28T00:17:46.947Z,4.63
2023-04-28T00:20:14.657Z,4.66
2023-04-28T00:22:42.366Z,4.64
2023-04-28T00:25:11.704Z,4.72
2023-04-28T00:27:39.391Z,4.68
2023-04-28T00:30:08.633Z,4.71
2023-04-28T00:32:37.048Z,4.67
2023-04-28T00:35:05.001Z,4.73
2023-04-28T00:37:32.623Z,4.69
2023-04-28T00:40:00.506Z,4.72
2023-04-28T00:42:29.549Z,4.70
2023-04-28T00:44:57.325Z,4.61
2023-04-28T00:47:24.999Z,4.62
2023-04-28T00:49:53.062Z,4.67
2023-04-28T00:52:20.749Z,4.66
2023-04-28T00:54:48.728Z,4.66
2023-04-28T00:57:16.442Z,4.69
2023-04-28T00:59:45.807Z,4.76
2023-04-28T01:02:17.357Z,4.76
2023-04-28T01:04:46.105Z,4.75
2023-04-28T01:07:13.873Z,4.81
2023-04-28T01:09:41.557Z,4.76
2023-04-28T01:12:09.266Z,4.75
2023-04-28T01:14:37.074Z,4.81
2023-04-28T01:17:06.441Z,4.83
2023-04-28T01:19:34.153Z,4.88
2023-04-28T01:22:01.847Z,4.95
2023-04-28T01:24:30.977Z,4.98
2023-04-28T01:26:58.630Z,4.97
2023-04-28T01:29:26.508Z,4.98
2023-04-28T01:31:54.194Z,5.01
2023-04-28T01:34:21.894Z,4.99
2023-04-28T01:36:49.553Z,4.98
2023-04-28T01:39:17.318Z,5.04
2023-04-28T01:41:46.359Z,5.08
2023-04-28T01:44:14.472Z,5.11
2023-04-28T01:46:42.556Z,5.13
2023-04-28T01:49:10.231Z,5.20
2023-04-28T01:51:37.913Z,5.27
2023-04-28T01:54:05.684Z,5.38
2023-04-28T01:56:33.410Z,5.39
2023-04-28T01:59:02.392Z,5.46
2023-04-28T02:01:30.103Z,5.48
2023-04-28T02:03:57.872Z,5.51
2023-04-28T02:06:25.641Z,5.58
2023-04-28T02:08:53.253Z,5.58
2023-04-28T02:11:21.097Z,5.59
2023-04-28T02:13:48.896Z,5.58
2023-04-28T02:16:18.027Z,5.60
2023-04-28T02:18:45.780Z,5.67
2023-04-28T02:21:14.086Z,5.74
2023-04-28T02:23:41.914Z,5.82
2023-04-28T02:26:09.579Z,5.93
2023-04-28T02:28:37.227Z,5.99
2023-04-28T02:31:06.306Z,6.00
2023-04-28T02:33:35.586Z,6.09
2023-04-28T02:36:04.117Z,6.12
2023-04-28T02:38:32.218Z,6.16
2023-04-28T02:41:00.903Z,6.35
2023-04-28T02:43:28.809Z,6.38
2023-04-28T02:45:56.857Z,6.36
2023-04-28T02:48:25.840Z,6.41
2023-04-28T02:50:55.087Z,6.43
2023-04-28T02:53:23.778Z,6.33
2023-04-28T02:55:51.425Z,6.29
2023-04-28T02:58:19.229Z,6.36
2023-04-28T03:00:47.545Z,6.40
2023-04-28T03:03:15.541Z,6.50
2023-04-28T03:05:43.408Z,6.60
2023-04-28T03:08:12.486Z,6.61
2023-04-28T03:10:40.179Z,6.60
2023-04-28T03:13:07.842Z,6.56
2023-04-28T03:15:35.708Z,6.57
2023-04-28T03:18:03.500Z,6.64
2023-04-28T03:20:31.203Z,6.69
2023-04-28T03:22:58.872Z,6.73
2023-04-28T03:25:28.011Z,6.76
2023-04-28T03:27:55.984Z,6.72
2023-04-28T03:30:23.738Z,6.74
2023-04-28T03:32:51.462Z,6.74
2023-04-28T03:35:19.297Z,6.70
2023-04-28T03:37:46.966Z,6.74
2023-04-28T03:40:14.800Z,6.74
2023-04-28T03:42:43.806Z,6.75
2023-04-28T03:45:12.482Z,6.76
2023-04-28T03:47:40.194Z,6.81
2023-04-28T03:50:09.080Z,6.91
2023-04-28T03:52:36.814Z,6.93
2023-04-28T03:55:04.551Z,6.95
2023-04-28T03:57:32.210Z,6.94
2023-04-28T04:00:01.190Z,6.98
2023-04-28T04:02:28.933Z,7.13
2023-04-28T04:04:57.017Z,7.16
2023-04-28T04:07:24.981Z,7.13
2023-04-28T04:09:52.653Z,7.10
2023-04-28T04:12:20.325Z,7.04
2023-04-28T04:14:47.995Z,7.00
2023-04-28T04:17:17.046Z,6.96
2023-04-28T04:19:44.725Z,6.92
2023-04-28T04:22:12.356Z,6.95
2023-04-28T04:24:40.070Z,6.99
2023-04-28T04:27:07.733Z,7.05
2023-04-28T04:29:35.410Z,7.01
2023-04-28T04:32:03.080Z,7.03
2023-04-28T04:34:32.156Z,7.08
2023-04-28T04:36:59.797Z,7.14
2023-04-28T04:39:27.583Z,7.26
2023-04-28T04:41:55.235Z,7.33
2023-04-28T04:44:22.920Z,7.44
2023-04-28T04:46:50.683Z,7.50
2023-04-28T04:49:18.420Z,7.57
2023-04-28T04:51:47.525Z,7.56
2023-04-28T04:54:15.334Z,7.63
2023-04-28T04:56:43.301Z,7.67
2023-04-28T04:59:10.985Z,7.74
2023-04-28T05:01:38.744Z,7.87
2023-04-28T05:04:06.686Z,7.97
2023-04-28T05:06:34.720Z,7.94
2023-04-28T05:09:03.785Z,7.93
2023-04-28T05:11:31.472Z,7.93
2023-04-28T05:14:02.242Z,7.98
2023-04-28T05:16:29.979Z,8.09
2023-04-28T05:18:57.705Z,8.16
2023-04-28T05:21:25.467Z,8.14
2023-04-28T05:23:53.779Z,8.11
2023-04-28T05:26:22.872Z,8.10
2023-04-28T05:28:50.644Z,8.11
2023-04-28T05:31:18.535Z,8.16
2023-04-28T05:33:46.255Z,8.32
2023-04-28T05:36:16.798Z,8.27
2023-04-28T05:38:44.739Z,8.27
2023-04-28T05:41:12.413Z,8.22
2023-04-28T05:43:42.891Z,8.22
2023-04-28T05:46:26.152Z,8.23
2023-04-28T05:48:57.611Z,8.26
2023-04-28T05:51:25.419Z,8.32
2023-04-28T05:53:53.111Z,8.21
2023-04-28T05:56:21.176Z,8.20
2023-04-28T05:58:50.760Z,8.23
2023-04-28T06:01:18.987Z,8.34
2023-04-28T06:03:54.249Z,8.36
2023-04-28T06:06:22.123Z,8.35
2023-04-28T06:08:50.014Z,8.27
2023-04-28T06:11:19.279Z,8.24
2023-04-28T06:13:46.962Z,8.25
2023-04-28T06:16:16.707Z,8.27
2023-04-28T06:18:44.441Z,8.38
2023-04-28T06:21:12.200Z,8.42
2023-04-28T06:23:40.806Z,8.55
2023-04-28T06:26:08.480Z,8.67
2023-04-28T06:28:36.252Z,8.83
2023-04-28T06:31:04.026Z,8.92
2023-04-28T06:33:33.117Z,9.08
2023-04-28T06:36:00.893Z,9.12
2023-04-28T06:38:28.757Z,9.28
2023-04-28T06:40:56.590Z,9.46
2023-04-28T06:43:24.234Z,9.50
2023-04-28T06:45:52.151Z,9.65
2023-04-28T06:48:20.288Z,9.76
2023-04-28T06:50:49.279Z,9.94
2023-04-28T06:53:17.096Z,10.06
2023-04-28T06:55:44.810Z,10.22
2023-04-28T06:58:12.560Z,10.31
2023-04-28T07:00:40.411Z,10.38
2023-04-28T07:03:13.113Z,10.46
2023-04-28T07:05:40.935Z,10.60
2023-04-28T07:08:10.060Z,10.69
2023-04-28T07:10:37.728Z,10.66
2023-04-28T07:13:05.404Z,10.72
2023-04-28T07:15:33.210Z,10.73
2023-04-28T07:18:01.419Z,10.76
2023-04-28T07:20:29.131Z,10.66
2023-04-28T07:22:56.839Z,10.61
2023-04-28T07:25:25.944Z,10.56
2023-04-28T07:27:54.198Z,10.59
2023-04-28T07:30:27.847Z,10.67
2023-04-28T07:32:56.254Z,10.67
2023-04-28T07:35:24.177Z,10.69
2023-04-28T07:37:51.939Z,10.74
2023-04-28T07:40:20.320Z,10.76
2023-04-28T07:42:49.457Z,10.87
2023-04-28T07:45:17.248Z,10.94
2023-04-28T07:47:44.976Z,11.01
2023-04-28T07:50:13.221Z,11.05
2023-04-28T07:52:40.962Z,11.21
2023-04-28T07:55:09.167Z,11.20
2023-04-28T07:57:37.266Z,11.18
2023-04-28T08:00:08.513Z,11.27
2023-04-28T08:02:36.313Z,11.28
2023-04-28T08:05:04.495Z,11.31
2023-04-28T08:07:32.254Z,11.29
2023-04-28T08:10:01.068Z,11.34
2023-04-28T08:12:28.783Z,11.32
2023-04-28T08:14:56.539Z,11.30
2023-04-28T08:17:25.894Z,11.27
2023-04-28T08:19:53.797Z,11.18
2023-04-28T08:22:21.569Z,11.09
2023-04-28T08:24:49.225Z,10.95
2023-04-28T08:27:16.990Z,10.86
2023-04-28T08:29:46.863Z,10.77
2023-04-28T08:32:14.587Z,10.63
2023-04-28T08:34:43.667Z,10.59
2023-04-28T08:37:11.401Z,10.68
2023-04-28T08:39:39.065Z,10.70
2023-04-28T08:42:06.892Z,10.70
2023-04-28T08:44:38.567Z,10.68
2023-04-28T08:47:12.934Z,10.71
2023-04-28T08:49:41.268Z,10.79
2023-04-28T08:52:13.538Z,10.79
2023-04-28T08:54:41.686Z,10.74
2023-04-28T08:57:10.818Z,10.80
2023-04-28T08:59:42.391Z,10.93
2023-04-28T09:02:10.594Z,10.96
2023-04-28T09:04:38.865Z,11.02
2023-04-28T09:07:13.661Z,11.02
2023-04-28T09:09:41.790Z,11.03
2023-04-28T09:12:09.514Z,11.08
2023-04-28T09:14:38.728Z,11.14
2023-04-28T09:17:12.799Z,11.26
2023-04-28T09:19:43.033Z,11.23
2023-04-28T09:22:25.690Z,11.29
2023-04-28T09:24:56.214Z,11.23
2023-04-28T09:27:28.392Z,11.18
2023-04-28T09:29:56.439Z,11.07
2023-04-28T09:32:25.916Z,10.97
2023-04-28T09:34:56.848Z,10.90
2023-04-28T09:37:27.205Z,10.89
2023-04-28T09:39:56.581Z,10.80
2023-04-28T09:42:35.059Z,10.79
2023-04-28T09:45:04.449Z,10.70
2023-04-28T09:47:33.643Z,10.62
2023-04-28T09:50:02.792Z,10.66
2023-04-28T09:52:30.832Z,10.62
2023-04-28T09:55:02.341Z,10.71
2023-04-28T09:57:32.337Z,10.79
2023-04-28T10:00:00.443Z,10.87
2023-04-28T10:05:00.007Z,10.77
2023-04-28T10:07:30.748Z,10.74
2023-04-28T10:10:00.138Z,10.75
2023-04-28T10:12:28.524Z,10.76
2023-04-28T10:14:57.096Z,10.73
2023-04-28T10:17:27.419Z,10.71
2023-04-28T10:19:55.770Z,10.55
2023-04-28T10:22:42.233Z,10.58
2023-04-28T10:25:27.711Z,10.65
2023-04-28T10:27:55.789Z,10.61
2023-04-28T10:30:27.929Z,10.61
2023-04-28T10:33:25.589Z,10.56
2023-04-28T10:35:53.604Z,10.53
2023-04-28T10:38:22.581Z,10.49
2023-04-28T10:40:52.667Z,10.38
2023-04-28T10:43:39.500Z,10.39
2023-04-28T10:46:09.263Z,10.44
2023-04-28T10:49:08.336Z,10.48
2023-04-28T10:51:38.016Z,10.54
2023-04-28T10:54:15.749Z,10.54
2023-04-28T10:57:21.429Z,10.59
2023-04-28T10:59:50.367Z,10.62
2023-04-28T11:02:44.198Z,10.60
2023-04-28T11:05:18.799Z,10.60
2023-04-28T11:08:29.928Z,10.70
2023-04-28T11:11:20.680Z,10.70
2023-04-28T11:13:50.678Z,10.54
2023-04-28T11:16:24.776Z,10.51
2023-04-28T11:19:05.396Z,10.48
2023-04-28T11:21:34.449Z,10.50
2023-04-28T11:24:02.331Z,10.56
2023-04-28T11:26:30.287Z,10.59
2023-04-28T11:28:59.667Z,10.59
2023-04-28T11:31:28.725Z,10.62
2023-04-28T11:34:04.838Z,10.72
2023-04-28T11:36:35.510Z,10.72
2023-04-28T11:39:05.003Z,10.86
2023-04-28T11:41:34.357Z,10.94
2023-04-28T11:44:11.272Z,11.14
2023-04-28T11:46:46.304Z,11.28
2023-04-28T11:49:15.017Z,11.31
2023-04-28T11:51:44.860Z,11.44
2023-04-28T11:54:14.727Z,11.49
2023-04-28T11:56:44.834Z,11.67
2023-04-28T11:59:16.177Z,11.71
2023-04-28T12:01:49.855Z,11.81
2023-04-28T12:04:28.525Z,11.79
2023-04-28T12:07:04.757Z,11.76
2023-04-28T12:09:33.228Z,11.81
2023-04-28T12:12:03.455Z,11.93
2023-04-28T12:14:35.341Z,11.76
2023-04-28T12:17:04.065Z,11.73
2023-04-28T12:19:31.838Z,11.73
2023-04-28T12:22:01.309Z,11.76
2023-04-28T12:24:29.042Z,11.80
2023-04-28T12:27:14.617Z,11.83
2023-04-28T12:29:46.372Z,11.87
2023-04-28T12:32:14.676Z,11.78
2023-04-28T12:34:43.486Z,11.90
2023-04-28T12:37:12.241Z,11.94
2023-04-28T12:39:42.286Z,12.00
2023-04-28T12:42:10.171Z,12.07
2023-04-28T12:44:38.738Z,12.08
2023-04-28T12:47:09.306Z,12.08
2023-04-28T12:49:37.593Z,12.17
2023-04-28T12:52:06.669Z,12.19
2023-04-28T12:54:34.635Z,12.19
2023-04-28T12:57:03.230Z,12.22
2023-04-28T12:59:31.654Z,12.23
2023-04-28T13:01:59.562Z,12.32
2023-04-28T13:04:29.017Z,12.29
2023-04-28T13:06:58.455Z,12.38
2023-04-28T13:09:27.112Z,12.41
2023-04-28T13:11:55.215Z,12.44
2023-04-28T13:14:23.147Z,12.55
2023-04-28T13:16:51.775Z,12.83
2023-04-28T13:19:19.589Z,12.89
2023-04-28T13:21:48.682Z,13.11
2023-04-28T13:24:16.439Z,13.22
2023-04-28T13:26:45.220Z,13.15
2023-04-28T13:29:14.294Z,13.04
2023-04-28T13:31:42.304Z,13.01
2023-04-28T13:34:15.759Z,13.01
2023-04-28T13:36:43.737Z,13.11
2023-04-28T13:39:14.614Z,13.16
2023-04-28T13:41:42.873Z,13.36
2023-04-28T13:44:10.698Z,13.62
2023-04-28T13:46:38.560Z,13.69
2023-04-28T13:49:06.413Z,13.66
2023-04-28T13:51:34.089Z,13.70
2023-04-28T13:54:04.352Z,13.89
2023-04-28T13:56:33.775Z,14.08
2023-04-28T13:59:01.523Z,14.15
2023-04-28T14:01:29.729Z,14.42
2023-04-28T14:03:57.770Z,14.42
2023-04-28T14:06:26.054Z,14.43
2023-04-28T14:08:53.833Z,14.66
2023-04-28T14:11:21.557Z,14.79
2023-04-28T14:13:50.687Z,14.69
2023-04-28T14:16:18.583Z,14.66
2023-04-28T14:18:46.288Z,14.43
2023-04-28T14:21:14.017Z,14.50
2023-04-28T14:23:41.661Z,14.46
2023-04-28T14:26:09.403Z,14.24
2023-04-28T14:28:37.465Z,14.20
2023-04-28T14:31:08.725Z,14.13
2023-04-28T14:33:36.900Z,14.12
2023-04-28T14:36:05.040Z,14.04
2023-04-28T14:38:32.942Z,14.02
2023-04-28T14:41:00.748Z,14.01
2023-04-28T14:43:28.400Z,14.02
2023-04-28T14:45:56.115Z,13.98
2023-04-28T14:48:25.350Z,13.97
2023-04-28T14:50:53.419Z,13.95
2023-04-28T14:53:21.096Z,14.00
2023-04-28T14:55:48.790Z,14.07
2023-04-28T14:58:16.494Z,14.22
2023-04-28T15:00:44.735Z,14.28
2023-04-28T15:03:12.564Z,14.32
2023-04-28T15:05:41.650Z,14.38
2023-04-28T15:08:09.385Z,14.25
2023-04-28T15:10:40.298Z,14.09
2023-04-28T15:13:08.409Z,14.04
2023-04-28T15:15:36.436Z,13.96
2023-04-28T15:18:04.534Z,13.78
2023-04-28T15:20:33.484Z,13.67
2023-04-28T15:23:02.546Z,13.59
2023-04-28T15:25:30.350Z,13.58
2023-04-28T15:27:58.290Z,13.42
2023-04-28T15:30:26.007Z,13.44
2023-04-28T15:32:53.772Z,13.40
2023-04-28T15:35:22.083Z,13.31
2023-04-28T15:37:52.122Z,13.22
2023-04-28T15:40:21.698Z,13.14
2023-04-28T15:42:51.652Z,13.08
2023-04-28T15:45:20.799Z,13.04
2023-04-28T15:47:50.163Z,13.04
2023-04-28T15:50:19.866Z,13.01
2023-04-28T15:52:50.184Z,12.93
2023-04-28T15:55:19.668Z,12.95
2023-04-28T15:57:49.397Z,12.93
2023-04-28T16:00:17.816Z,12.89
2023-04-28T16:02:46.303Z,12.80
2023-04-28T16:05:14.787Z,12.73
2023-04-28T16:07:42.584Z,12.73
2023-04-28T16:10:11.801Z,12.70
2023-04-28T16:12:39.831Z,12.69
2023-04-28T16:15:10.762Z,12.73
2023-04-28T16:17:39.152Z,12.70
2023-04-28T16:20:08.341Z,12.75
2023-04-28T16:22:36.661Z,12.71
2023-04-28T16:25:04.543Z,12.73
2023-04-28T16:27:32.884Z,12.77
2023-04-28T16:30:00.686Z,12.71
2023-04-28T16:32:30.547Z,12.67
2023-04-28T16:34:58.817Z,12.66
2023-04-28T16:37:26.679Z,12.68
2023-04-28T16:39:54.618Z,12.66
2023-04-28T16:42:22.675Z,12.62
2023-04-28T16:44:52.650Z,12.67
2023-04-28T16:47:20.903Z,12.67
2023-04-28T16:49:50.179Z,12.59
2023-04-28T16:52:17.956Z,12.58
2023-04-28T16:54:45.768Z,12.53
2023-04-28T16:57:13.454Z,12.53
2023-04-28T16:59:41.294Z,12.53
2023-04-28T17:02:09.184Z,12.45
2023-04-28T17:04:37.845Z,12.42
2023-04-28T17:07:07.328Z,12.39
2023-04-28T17:09:35.088Z,12.36
2023-04-28T17:12:03.560Z,12.32
2023-04-28T17:14:31.352Z,12.31
2023-04-28T17:16:59.081Z,12.29
2023-04-28T17:19:27.412Z,12.29
2023-04-28T17:21:55.668Z,12.27
2023-04-28T17:24:24.708Z,12.25
2023-04-28T17:26:52.494Z,12.27
2023-04-28T17:29:22.153Z,12.32
2023-04-28T17:31:50.108Z,12.37
2023-04-28T17:34:19.895Z,12.38
2023-04-28T17:36:47.836Z,12.39
2023-04-28T17:39:16.590Z,12.35
2023-04-28T17:41:46.837Z,12.36
2023-04-28T17:44:14.507Z,12.30
2023-04-28T17:46:42.235Z,12.32
2023-04-28T17:49:09.970Z,12.35
2023-04-28T17:51:38.058Z,12.32
2023-04-28T17:54:09.494Z,12.30
2023-04-28T17:56:38.450Z,12.31
2023-04-28T17:59:08.896Z,12.29
2023-04-28T18:01:36.660Z,12.26
2023-04-28T18:04:04.500Z,12.22
2023-04-28T18:06:34.094Z,12.22
2023-04-28T18:09:02.214Z,12.20
2023-04-28T18:11:29.983Z,12.20
2023-04-28T18:13:58.690Z,12.18
2023-04-28T18:16:28.512Z,12.20
2023-04-28T18:18:56.385Z,12.22
2023-04-28T18:21:24.034Z,12.25
2023-04-28T18:23:51.717Z,12.23
2023-04-28T18:26:20.219Z,12.23
2023-04-28T18:28:48.815Z,12.22
2023-04-28T18:31:16.857Z,12.24
2023-04-28T18:33:46.011Z,12.23
2023-04-28T18:36:13.812Z,12.27
2023-04-28T18:38:41.476Z,12.23
2023-04-28T18:41:14.118Z,12.18
2023-04-28T18:43:42.601Z,12.12
2023-04-28T18:46:10.668Z,12.05
2023-04-28T18:48:39.060Z,12.00
2023-04-28T18:51:08.294Z,11.94
2023-04-28T18:53:37.081Z,11.81
2023-04-28T18:56:05.302Z,11.76
2023-04-28T18:58:33.221Z,11.74
2023-04-28T19:01:00.995Z,11.65
2023-04-28T19:03:29.044Z,11.54
2023-04-28T19:05:57.020Z,11.51
2023-04-28T19:08:26.126Z,11.42
2023-04-28T19:10:53.829Z,11.35
2023-04-28T19:13:23.191Z,11.28
2023-04-28T19:15:54.256Z,11.24
2023-04-28T19:18:22.491Z,11.19
2023-04-28T19:20:52.187Z,11.17
2023-04-28T19:23:20.188Z,11.13
2023-04-28T19:25:49.266Z,11.05
2023-04-28T19:28:16.933Z,11.00
2023-04-28T19:30:44.690Z,10.92
2023-04-28T19:33:12.457Z,10.91
2023-04-28T19:35:40.153Z,10.88
2023-04-28T19:38:08.154Z,10.87
2023-04-28T19:40:35.892Z,10.85
2023-04-28T19:43:05.007Z,10.90
2023-04-28T19:45:34.740Z,10.90
2023-04-28T19:48:02.577Z,10.84
2023-04-28T19:50:30.429Z,10.82
2023-04-28T19:52:58.133Z,10.81
2023-04-28T19:55:25.843Z,10.82
2023-04-28T19:57:55.634Z,10.80
2023-04-28T20:00:25.542Z,10.77
2023-04-28T20:02:53.385Z,10.81
2023-04-28T20:05:21.738Z,10.84
2023-04-28T20:07:49.946Z,10.77
2023-04-28T20:10:19.032Z,10.77
2023-04-28T20:12:46.841Z,10.74
2023-04-28T20:15:16.615Z,10.74
2023-04-28T20:17:46.096Z,10.74
2023-04-28T20:20:14.408Z,10.74
2023-04-28T20:22:42.154Z,10.72
2023-04-28T20:25:11.099Z,10.71
2023-04-28T20:27:38.854Z,10.68
2023-04-28T20:30:08.083Z,10.66
2023-04-28T20:32:36.708Z,10.61
2023-04-28T20:35:07.171Z,10.59
2023-04-28T20:37:34.892Z,10.60
2023-04-28T20:40:03.126Z,10.56
2023-04-28T20:42:30.847Z,10.58
2023-04-28T20:44:58.689Z,10.58
2023-04-28T20:47:26.504Z,10.59
2023-04-28T20:49:54.245Z,10.59
2023-04-28T20:52:23.274Z,10.58
2023-04-28T20:54:52.026Z,10.55
2023-04-28T20:57:19.763Z,10.56
2023-04-28T20:59:47.416Z,10.53
2023-04-28T21:02:15.108Z,10.52
2023-04-28T21:04:42.843Z,10.52
2023-04-28T21:07:10.545Z,10.53
2023-04-28T21:09:42.018Z,10.51
2023-04-28T21:12:09.871Z,10.50
2023-04-28T21:14:37.693Z,10.47
2023-04-28T21:17:05.633Z,10.44
2023-04-28T21:19:33.645Z,10.42
2023-04-28T21:22:02.155Z,10.41
2023-04-28T21:24:29.859Z,10.40
2023-04-28T21:26:59.478Z,10.38
2023-04-28T21:29:27.583Z,10.41
2023-04-28T21:31:55.496Z,10.38
2023-04-28T21:34:23.275Z,10.28
2023-04-28T21:36:51.332Z,10.23
2023-04-28T21:39:19.017Z,10.15
2023-04-28T21:41:46.697Z,10.08
2023-04-28T21:44:16.462Z,10.04
2023-04-28T21:46:44.157Z,9.98
2023-04-28T21:49:13.152Z,9.95
2023-04-28T21:51:42.214Z,9.92
2023-04-28T21:54:10.120Z,9.88
2023-04-28T21:56:37.815Z,9.83
2023-04-28T21:59:05.536Z,9.85
2023-04-28T22:01:35.550Z,9.80
2023-04-28T22:04:04.055Z,9.84
2023-04-28T22:06:32.449Z,9.84
2023-04-28T22:09:01.337Z,9.88
2023-04-28T22:11:29.072Z,9.93
2023-04-28T22:13:56.772Z,9.93
2023-04-28T22:16:24.822Z,10.00
2023-04-28T22:18:53.960Z,10.01
2023-04-28T22:21:21.818Z,9.98
2023-04-28T22:23:52.253Z,9.94
2023-04-28T22:26:20.133Z,10.01
2023-04-28T22:28:48.654Z,10.01
2023-04-28T22:31:16.435Z,10.01
2023-04-28T22:33:44.361Z,9.93
2023-04-28T22:36:13.407Z,9.89
2023-04-28T22:38:41.359Z,9.85
2023-04-28T22:41:09.018Z,9.81
2023-04-28T22:43:36.831Z,9.78
2023-04-28T22:46:04.563Z,9.72
2023-04-28T22:48:32.353Z,9.68
2023-04-28T22:51:00.664Z,9.63
2023-04-28T22:58:40.737Z,9.50
2023-04-28T23:01:08.434Z,9.48
2023-04-28T23:03:38.210Z,9.47
2023-04-28T23:06:06.164Z,9.46
2023-04-28T23:08:35.131Z,9.46
2023-04-28T23:11:02.943Z,9.42
2023-04-28T23:13:30.591Z,9.41
2023-04-28T23:16:01.014Z,9.36
2023-04-28T23:18:34.413Z,9.38
2023-04-28T23:21:02.084Z,9.36
2023-04-28T23:23:29.923Z,9.37
2023-04-28T23:25:57.596Z,9.36
2023-04-28T23:28:25.279Z,9.36
2023-04-28T23:30:52.953Z,9.34
2023-04-28T23:33:21.997Z,9.34
2023-04-28T23:35:49.814Z,9.31
2023-04-28T23:38:17.568Z,9.33
2023-04-28T23:40:47.277Z,9.33
2023-04-28T23:43:15.059Z,9.32
2023-04-28T23:45:42.792Z,9.35
2023-04-28T23:48:11.045Z,9.37
2023-04-28T23:50:40.083Z,9.36
2023-04-28T23:53:07.738Z,9.38
2023-04-28T23:55:37.053Z,9.38
2023-04-28T23:58:04.787Z,9.40
